Terminal Aerodrome Forecast
Issued by NWS Melbourne, FL

Current Version | Previous Version | Text Only | Print | Product List | Glossary On
Versions: 1 2 3 4 5 6 7 8 9 10 11 12 13
354
FTUS42 KMLB 192332
TAFVRB
TAF
KVRB 192332Z 2000/2024 05011KT P6SM VCSH SCT030 BKN100
     FM200400 07007KT P6SM VCSH FEW035 SCT250
     FM201700 07010KT P6SM SCT040 SCT250=

USA.gov is the U.S. government's official web portal to all federal, state and local government web resources and services.